sensor_id;sensor_type;location;lat;lon;timestamp;P1;durP1;ratioP1;P2;durP2;ratioP2
70132;SDS011;57495;49.922;7.966;2023-02-15T00:00:04;39.95;;;15.75;;
70132;SDS011;57495;49.922;7.966;2023-02-15T00:02:08;37.45;;;14.18;;
70132;SDS011;57495;49.922;7.966;2023-02-15T00:04:09;42.53;;;15.52;;
70132;SDS011;57495;49.922;7.966;2023-02-15T00:06:13;37.00;;;15.30;;
70132;SDS011;57495;49.922;7.966;2023-02-15T00:08:15;43.03;;;15.77;;
70132;SDS011;57495;49.922;7.966;2023-02-15T00:10:16;36.63;;;14.60;;
70132;SDS011;57495;49.922;7.966;2023-02-15T00:12:18;34.20;;;14.00;;
70132;SDS011;57495;49.922;7.966;2023-02-15T00:14:20;39.50;;;15.13;;
70132;SDS011;57495;49.922;7.966;2023-02-15T00:16:24;38.75;;;15.13;;
70132;SDS011;57495;49.922;7.966;2023-02-15T00:18:25;35.90;;;14.77;;
70132;SDS011;57495;49.922;7.966;2023-02-15T00:20:27;36.40;;;14.77;;
70132;SDS011;57495;49.922;7.966;2023-02-15T00:22:28;38.55;;;15.07;;
70132;SDS011;57495;49.922;7.966;2023-02-15T00:24:29;38.92;;;14.65;;
70132;SDS011;57495;49.922;7.966;2023-02-15T00:26:31;40.10;;;15.15;;
70132;SDS011;57495;49.922;7.966;2023-02-15T00:28:33;39.57;;;15.27;;
70132;SDS011;57495;49.922;7.966;2023-02-15T00:30:34;42.28;;;15.77;;
70132;SDS011;57495;49.922;7.966;2023-02-15T00:32:37;41.92;;;16.08;;
70132;SDS011;57495;49.922;7.966;2023-02-15T00:34:38;37.63;;;13.95;;
70132;SDS011;57495;49.922;7.966;2023-02-15T00:36:40;42.15;;;14.70;;
70132;SDS011;57495;49.922;7.966;2023-02-15T00:38:41;45.43;;;16.23;;
70132;SDS011;57495;49.922;7.966;2023-02-15T00:40:42;41.92;;;14.77;;
70132;SDS011;57495;49.922;7.966;2023-02-15T00:42:44;49.13;;;15.38;;
70132;SDS011;57495;49.922;7.966;2023-02-15T00:44:45;44.60;;;15.85;;
70132;SDS011;57495;49.922;7.966;2023-02-15T00:46:47;60.88;;;15.10;;
70132;SDS011;57495;49.922;7.966;2023-02-15T00:48:49;41.10;;;16.10;;
70132;SDS011;57495;49.922;7.966;2023-02-15T00:50:53;43.17;;;15.23;;
70132;SDS011;57495;49.922;7.966;2023-02-15T00:52:55;44.65;;;15.18;;
70132;SDS011;57495;49.922;7.966;2023-02-15T00:54:56;39.30;;;15.00;;
70132;SDS011;57495;49.922;7.966;2023-02-15T00:56:58;48.92;;;15.60;;
70132;SDS011;57495;49.922;7.966;2023-02-15T00:58:59;40.40;;;15.40;;
70132;SDS011;57495;49.922;7.966;2023-02-15T01:01:04;43.13;;;15.73;;
70132;SDS011;57495;49.922;7.966;2023-02-15T01:03:07;44.88;;;14.63;;
70132;SDS011;57495;49.922;7.966;2023-02-15T01:05:10;37.72;;;14.52;;
70132;SDS011;57495;49.922;7.966;2023-02-15T01:07:12;41.53;;;15.02;;
70132;SDS011;57495;49.922;7.966;2023-02-15T01:09:13;51.00;;;15.10;;
70132;SDS011;57495;49.922;7.966;2023-02-15T01:11:16;53.83;;;14.18;;
70132;SDS011;57495;49.922;7.966;2023-02-15T01:13:21;41.55;;;14.90;;
70132;SDS011;57495;49.922;7.966;2023-02-15T01:15:23;39.15;;;13.30;;
70132;SDS011;57495;49.922;7.966;2023-02-15T01:17:25;37.25;;;13.98;;
70132;SDS011;57495;49.922;7.966;2023-02-15T01:19:26;39.53;;;14.53;;
70132;SDS011;57495;49.922;7.966;2023-02-15T01:21:29;40.97;;;13.80;;
70132;SDS011;57495;49.922;7.966;2023-02-15T01:23:34;38.53;;;15.23;;
70132;SDS011;57495;49.922;7.966;2023-02-15T01:25:35;76.88;;;15.93;;
70132;SDS011;57495;49.922;7.966;2023-02-15T01:27:37;44.28;;;15.90;;
70132;SDS011;57495;49.922;7.966;2023-02-15T01:29:38;37.20;;;13.97;;
70132;SDS011;57495;49.922;7.966;2023-02-15T01:31:40;45.80;;;17.02;;
70132;SDS011;57495;49.922;7.966;2023-02-15T01:33:41;41.83;;;15.73;;
70132;SDS011;57495;49.922;7.966;2023-02-15T01:35:43;45.03;;;15.57;;
70132;SDS011;57495;49.922;7.966;2023-02-15T01:37:47;42.80;;;15.38;;
70132;SDS011;57495;49.922;7.966;2023-02-15T01:39:48;41.70;;;17.53;;
70132;SDS011;57495;49.922;7.966;2023-02-15T01:41:50;38.67;;;14.63;;
70132;SDS011;57495;49.922;7.966;2023-02-15T01:43:52;45.60;;;17.63;;
70132;SDS011;57495;49.922;7.966;2023-02-15T01:45:55;40.22;;;15.40;;
70132;SDS011;57495;49.922;7.966;2023-02-15T01:47:58;46.17;;;14.48;;
70132;SDS011;57495;49.922;7.966;2023-02-15T01:50:09;42.20;;;14.17;;
70132;SDS011;57495;49.922;7.966;2023-02-15T01:52:16;51.17;;;15.93;;
70132;SDS011;57495;49.922;7.966;2023-02-15T01:54:21;44.05;;;14.55;;
70132;SDS011;57495;49.922;7.966;2023-02-15T01:56:27;55.53;;;14.32;;
70132;SDS011;57495;49.922;7.966;2023-02-15T01:58:32;62.55;;;14.93;;
70132;SDS011;57495;49.922;7.966;2023-02-15T02:00:35;53.20;;;13.97;;
70132;SDS011;57495;49.922;7.966;2023-02-15T02:02:36;40.28;;;13.75;;
70132;SDS011;57495;49.922;7.966;2023-02-15T02:04:39;42.78;;;14.15;;
70132;SDS011;57495;49.922;7.966;2023-02-15T02:06:46;42.38;;;13.98;;
70132;SDS011;57495;49.922;7.966;2023-02-15T02:08:50;45.45;;;15.63;;
70132;SDS011;57495;49.922;7.966;2023-02-15T02:10:53;43.17;;;15.23;;
70132;SDS011;57495;49.922;7.966;2023-02-15T02:12:56;41.08;;;15.10;;
70132;SDS011;57495;49.922;7.966;2023-02-15T02:14:59;41.83;;;16.15;;
70132;SDS011;57495;49.922;7.966;2023-02-15T02:17:03;37.60;;;13.80;;
70132;SDS011;57495;49.922;7.966;2023-02-15T02:19:19;39.80;;;14.27;;
70132;SDS011;57495;49.922;7.966;2023-02-15T02:21:51;36.03;;;14.17;;
70132;SDS011;57495;49.922;7.966;2023-02-15T02:24:29;41.38;;;13.82;;
70132;SDS011;57495;49.922;7.966;2023-02-15T02:29:25;42.28;;;15.40;;
70132;SDS011;57495;49.922;7.966;2023-02-15T02:31:54;39.28;;;15.30;;
70132;SDS011;57495;49.922;7.966;2023-02-15T02:34:18;34.33;;;13.50;;
70132;SDS011;57495;49.922;7.966;2023-02-15T02:36:30;40.03;;;13.18;;
70132;SDS011;57495;49.922;7.966;2023-02-15T02:38:39;39.78;;;14.13;;
70132;SDS011;57495;49.922;7.966;2023-02-15T02:40:50;40.65;;;14.45;;
70132;SDS011;57495;49.922;7.966;2023-02-15T02:42:59;36.88;;;14.77;;
70132;SDS011;57495;49.922;7.966;2023-02-15T02:45:03;38.33;;;13.40;;
70132;SDS011;57495;49.922;7.966;2023-02-15T02:47:09;41.95;;;13.35;;
70132;SDS011;57495;49.922;7.966;2023-02-15T02:49:14;41.15;;;13.07;;
70132;SDS011;57495;49.922;7.966;2023-02-15T02:51:17;38.85;;;13.93;;
70132;SDS011;57495;49.922;7.966;2023-02-15T02:53:21;36.38;;;14.45;;
70132;SDS011;57495;49.922;7.966;2023-02-15T02:55:23;38.73;;;13.50;;
70132;SDS011;57495;49.922;7.966;2023-02-15T02:57:28;38.00;;;13.73;;
70132;SDS011;57495;49.922;7.966;2023-02-15T02:59:34;40.08;;;14.10;;
70132;SDS011;57495;49.922;7.966;2023-02-15T03:01:43;34.30;;;14.35;;
70132;SDS011;57495;49.922;7.966;2023-02-15T03:03:48;51.25;;;15.32;;
70132;SDS011;57495;49.922;7.966;2023-02-15T03:05:53;38.80;;;13.40;;
70132;SDS011;57495;49.922;7.966;2023-02-15T03:07:59;38.88;;;13.93;;
70132;SDS011;57495;49.922;7.966;2023-02-15T03:10:06;32.17;;;12.82;;
70132;SDS011;57495;49.922;7.966;2023-02-15T03:12:09;38.22;;;13.82;;
70132;SDS011;57495;49.922;7.966;2023-02-15T03:14:14;34.90;;;14.15;;
70132;SDS011;57495;49.922;7.966;2023-02-15T03:16:16;34.27;;;13.70;;
70132;SDS011;57495;49.922;7.966;2023-02-15T03:18:27;35.25;;;14.57;;
70132;SDS011;57495;49.922;7.966;2023-02-15T03:20:33;41.75;;;14.23;;
70132;SDS011;57495;49.922;7.966;2023-02-15T03:22:37;38.35;;;14.07;;
70132;SDS011;57495;49.922;7.966;2023-02-15T03:24:46;40.70;;;14.43;;
70132;SDS011;57495;49.922;7.966;2023-02-15T03:26:52;43.60;;;13.60;;
70132;SDS011;57495;49.922;7.966;2023-02-15T03:28:55;35.33;;;12.27;;
70132;SDS011;57495;49.922;7.966;2023-02-15T03:31:00;38.38;;;13.07;;
70132;SDS011;57495;49.922;7.966;2023-02-15T03:33:04;48.33;;;13.80;;
70132;SDS011;57495;49.922;7.966;2023-02-15T03:35:07;48.78;;;14.95;;
70132;SDS011;57495;49.922;7.966;2023-02-15T03:37:10;36.87;;;13.20;;
70132;SDS011;57495;49.922;7.966;2023-02-15T03:39:18;35.72;;;14.05;;
70132;SDS011;57495;49.922;7.966;2023-02-15T03:41:24;43.78;;;14.77;;
70132;SDS011;57495;49.922;7.966;2023-02-15T03:43:31;37.80;;;13.82;;
70132;SDS011;57495;49.922;7.966;2023-02-15T03:45:40;37.25;;;13.73;;
70132;SDS011;57495;49.922;7.966;2023-02-15T03:47:54;34.03;;;13.83;;
70132;SDS011;57495;49.922;7.966;2023-02-15T03:49:59;37.97;;;14.23;;
70132;SDS011;57495;49.922;7.966;2023-02-15T03:52:04;37.72;;;13.27;;
70132;SDS011;57495;49.922;7.966;2023-02-15T03:54:08;31.73;;;12.88;;
70132;SDS011;57495;49.922;7.966;2023-02-15T03:56:12;31.48;;;12.63;;
70132;SDS011;57495;49.922;7.966;2023-02-15T03:58:15;30.50;;;11.97;;
70132;SDS011;57495;49.922;7.966;2023-02-15T04:00:34;28.70;;;12.23;;
70132;SDS011;57495;49.922;7.966;2023-02-15T04:03:03;30.48;;;11.90;;
70132;SDS011;57495;49.922;7.966;2023-02-15T04:05:23;27.08;;;11.50;;
70132;SDS011;57495;49.922;7.966;2023-02-15T04:07:24;26.85;;;10.90;;
70132;SDS011;57495;49.922;7.966;2023-02-15T04:09:25;27.33;;;12.43;;
70132;SDS011;57495;49.922;7.966;2023-02-15T04:11:45;28.85;;;11.85;;
70132;SDS011;57495;49.922;7.966;2023-02-15T04:13:47;27.98;;;11.13;;
70132;SDS011;57495;49.922;7.966;2023-02-15T04:15:56;25.30;;;11.13;;
70132;SDS011;57495;49.922;7.966;2023-02-15T04:18:03;30.52;;;12.23;;
70132;SDS011;57495;49.922;7.966;2023-02-15T04:20:05;27.90;;;11.57;;
70132;SDS011;57495;49.922;7.966;2023-02-15T04:22:25;28.38;;;12.43;;
70132;SDS011;57495;49.922;7.966;2023-02-15T04:24:45;25.15;;;11.23;;
70132;SDS011;57495;49.922;7.966;2023-02-15T04:27:04;28.00;;;11.05;;
70132;SDS011;57495;49.922;7.966;2023-02-15T04:29:07;28.35;;;11.35;;
70132;SDS011;57495;49.922;7.966;2023-02-15T04:31:08;27.33;;;11.67;;
70132;SDS011;57495;49.922;7.966;2023-02-15T04:33:10;31.50;;;12.02;;
70132;SDS011;57495;49.922;7.966;2023-02-15T04:35:11;28.95;;;11.90;;
70132;SDS011;57495;49.922;7.966;2023-02-15T04:37:13;25.63;;;11.15;;
70132;SDS011;57495;49.922;7.966;2023-02-15T04:39:15;26.80;;;11.75;;
70132;SDS011;57495;49.922;7.966;2023-02-15T04:41:17;25.63;;;11.60;;
70132;SDS011;57495;49.922;7.966;2023-02-15T04:43:19;23.70;;;10.52;;
70132;SDS011;57495;49.922;7.966;2023-02-15T04:45:22;32.72;;;12.63;;
70132;SDS011;57495;49.922;7.966;2023-02-15T04:47:23;25.00;;;11.45;;
70132;SDS011;57495;49.922;7.966;2023-02-15T04:49:25;25.65;;;11.77;;
70132;SDS011;57495;49.922;7.966;2023-02-15T04:51:26;25.70;;;9.90;;
70132;SDS011;57495;49.922;7.966;2023-02-15T04:53:28;26.05;;;11.25;;
70132;SDS011;57495;49.922;7.966;2023-02-15T04:55:29;26.77;;;11.13;;
70132;SDS011;57495;49.922;7.966;2023-02-15T04:57:30;27.25;;;10.90;;
70132;SDS011;57495;49.922;7.966;2023-02-15T04:59:32;30.80;;;12.55;;
70132;SDS011;57495;49.922;7.966;2023-02-15T05:01:35;28.13;;;11.50;;
70132;SDS011;57495;49.922;7.966;2023-02-15T05:03:36;24.92;;;10.30;;
70132;SDS011;57495;49.922;7.966;2023-02-15T05:05:37;23.13;;;10.75;;
70132;SDS011;57495;49.922;7.966;2023-02-15T05:07:39;25.42;;;10.77;;
70132;SDS011;57495;49.922;7.966;2023-02-15T05:09:40;25.77;;;10.60;;
70132;SDS011;57495;49.922;7.966;2023-02-15T05:11:42;26.17;;;11.37;;
70132;SDS011;57495;49.922;7.966;2023-02-15T05:13:43;27.10;;;11.27;;
70132;SDS011;57495;49.922;7.966;2023-02-15T05:15:46;26.00;;;10.98;;
70132;SDS011;57495;49.922;7.966;2023-02-15T05:17:50;27.60;;;11.40;;
70132;SDS011;57495;49.922;7.966;2023-02-15T05:19:51;24.80;;;9.73;;
70132;SDS011;57495;49.922;7.966;2023-02-15T05:21:52;26.37;;;11.30;;
70132;SDS011;57495;49.922;7.966;2023-02-15T05:23:54;25.20;;;10.77;;
70132;SDS011;57495;49.922;7.966;2023-02-15T05:25:55;24.25;;;10.40;;
70132;SDS011;57495;49.922;7.966;2023-02-15T05:28:14;26.65;;;10.57;;
70132;SDS011;57495;49.922;7.966;2023-02-15T05:30:21;23.92;;;10.43;;
70132;SDS011;57495;49.922;7.966;2023-02-15T05:32:22;26.57;;;11.07;;
70132;SDS011;57495;49.922;7.966;2023-02-15T05:34:25;25.88;;;10.63;;
70132;SDS011;57495;49.922;7.966;2023-02-15T05:36:26;25.67;;;11.40;;
70132;SDS011;57495;49.922;7.966;2023-02-15T05:38:28;23.70;;;9.00;;
70132;SDS011;57495;49.922;7.966;2023-02-15T05:40:30;28.27;;;11.15;;
70132;SDS011;57495;49.922;7.966;2023-02-15T05:42:31;25.80;;;9.93;;
70132;SDS011;57495;49.922;7.966;2023-02-15T05:44:33;24.38;;;11.07;;
70132;SDS011;57495;49.922;7.966;2023-02-15T05:46:34;28.33;;;10.32;;
70132;SDS011;57495;49.922;7.966;2023-02-15T05:48:35;22.88;;;10.38;;
70132;SDS011;57495;49.922;7.966;2023-02-15T05:50:38;26.77;;;10.90;;
70132;SDS011;57495;49.922;7.966;2023-02-15T05:52:40;25.37;;;10.40;;
70132;SDS011;57495;49.922;7.966;2023-02-15T05:54:41;25.17;;;10.23;;
70132;SDS011;57495;49.922;7.966;2023-02-15T05:56:42;25.80;;;10.48;;
70132;SDS011;57495;49.922;7.966;2023-02-15T05:58:44;24.90;;;10.50;;
70132;SDS011;57495;49.922;7.966;2023-02-15T06:00:45;24.85;;;10.68;;
70132;SDS011;57495;49.922;7.966;2023-02-15T06:02:47;23.60;;;9.73;;
70132;SDS011;57495;49.922;7.966;2023-02-15T06:04:48;28.52;;;10.02;;
70132;SDS011;57495;49.922;7.966;2023-02-15T06:06:51;25.00;;;10.57;;
70132;SDS011;57495;49.922;7.966;2023-02-15T06:08:52;26.45;;;10.65;;
70132;SDS011;57495;49.922;7.966;2023-02-15T06:10:53;24.98;;;10.10;;
70132;SDS011;57495;49.922;7.966;2023-02-15T06:12:55;22.70;;;9.60;;
70132;SDS011;57495;49.922;7.966;2023-02-15T06:14:56;26.08;;;10.68;;
70132;SDS011;57495;49.922;7.966;2023-02-15T06:16:57;30.58;;;10.90;;
70132;SDS011;57495;49.922;7.966;2023-02-15T06:18:59;28.00;;;10.85;;
70132;SDS011;57495;49.922;7.966;2023-02-15T06:21:01;29.08;;;10.63;;
70132;SDS011;57495;49.922;7.966;2023-02-15T06:23:04;25.87;;;10.50;;
70132;SDS011;57495;49.922;7.966;2023-02-15T06:25:06;27.02;;;10.73;;
70132;SDS011;57495;49.922;7.966;2023-02-15T06:27:09;22.00;;;8.13;;
70132;SDS011;57495;49.922;7.966;2023-02-15T06:29:11;35.03;;;9.75;;
70132;SDS011;57495;49.922;7.966;2023-02-15T06:31:12;28.30;;;9.95;;
70132;SDS011;57495;49.922;7.966;2023-02-15T06:33:14;28.20;;;10.63;;
70132;SDS011;57495;49.922;7.966;2023-02-15T06:35:15;27.45;;;9.65;;
70132;SDS011;57495;49.922;7.966;2023-02-15T06:37:17;27.08;;;10.73;;
70132;SDS011;57495;49.922;7.966;2023-02-15T06:39:19;28.83;;;10.50;;
70132;SDS011;57495;49.922;7.966;2023-02-15T06:41:21;31.20;;;11.55;;
70132;SDS011;57495;49.922;7.966;2023-02-15T06:43:22;31.27;;;12.63;;
70132;SDS011;57495;49.922;7.966;2023-02-15T06:45:24;28.17;;;11.05;;
70132;SDS011;57495;49.922;7.966;2023-02-15T06:47:25;27.58;;;10.70;;
70132;SDS011;57495;49.922;7.966;2023-02-15T06:49:26;28.10;;;11.85;;
70132;SDS011;57495;49.922;7.966;2023-02-15T06:51:28;28.80;;;10.35;;
70132;SDS011;57495;49.922;7.966;2023-02-15T06:53:29;27.27;;;10.47;;
70132;SDS011;57495;49.922;7.966;2023-02-15T06:55:32;29.40;;;10.65;;
70132;SDS011;57495;49.922;7.966;2023-02-15T06:57:34;28.83;;;10.48;;
70132;SDS011;57495;49.922;7.966;2023-02-15T06:59:35;27.77;;;9.95;;
70132;SDS011;57495;49.922;7.966;2023-02-15T07:01:37;26.83;;;10.07;;
70132;SDS011;57495;49.922;7.966;2023-02-15T07:03:38;27.87;;;9.67;;
70132;SDS011;57495;49.922;7.966;2023-02-15T07:05:39;29.23;;;10.40;;
70132;SDS011;57495;49.922;7.966;2023-02-15T07:07:41;25.35;;;9.98;;
70132;SDS011;57495;49.922;7.966;2023-02-15T07:09:42;26.80;;;10.55;;
70132;SDS011;57495;49.922;7.966;2023-02-15T07:11:45;25.95;;;10.18;;
70132;SDS011;57495;49.922;7.966;2023-02-15T07:14:04;74.60;;;31.07;;
70132;SDS011;57495;49.922;7.966;2023-02-15T07:16:05;32.67;;;13.00;;
70132;SDS011;57495;49.922;7.966;2023-02-15T07:18:07;29.60;;;10.80;;
70132;SDS011;57495;49.922;7.966;2023-02-15T07:20:10;29.65;;;10.60;;
70132;SDS011;57495;49.922;7.966;2023-02-15T07:22:13;32.80;;;11.00;;
70132;SDS011;57495;49.922;7.966;2023-02-15T07:24:14;31.00;;;10.83;;
70132;SDS011;57495;49.922;7.966;2023-02-15T07:26:16;23.27;;;7.43;;
70132;SDS011;57495;49.922;7.966;2023-02-15T07:28:18;30.02;;;10.80;;
70132;SDS011;57495;49.922;7.966;2023-02-15T07:30:20;35.35;;;13.27;;
70132;SDS011;57495;49.922;7.966;2023-02-15T07:32:21;30.35;;;9.82;;
70132;SDS011;57495;49.922;7.966;2023-02-15T07:34:23;33.13;;;10.27;;
70132;SDS011;57495;49.922;7.966;2023-02-15T07:36:24;27.90;;;10.45;;
70132;SDS011;57495;49.922;7.966;2023-02-15T07:38:26;31.98;;;11.30;;
70132;SDS011;57495;49.922;7.966;2023-02-15T07:40:28;27.65;;;8.43;;
70132;SDS011;57495;49.922;7.966;2023-02-15T07:42:30;25.88;;;9.35;;
70132;SDS011;57495;49.922;7.966;2023-02-15T07:44:33;29.70;;;10.07;;
70132;SDS011;57495;49.922;7.966;2023-02-15T07:46:34;22.63;;;7.80;;
70132;SDS011;57495;49.922;7.966;2023-02-15T07:48:35;24.58;;;8.32;;
70132;SDS011;57495;49.922;7.966;2023-02-15T07:50:38;22.88;;;8.55;;
70132;SDS011;57495;49.922;7.966;2023-02-15T07:52:39;30.40;;;10.85;;
70132;SDS011;57495;49.922;7.966;2023-02-15T07:54:40;24.17;;;9.13;;
70132;SDS011;57495;49.922;7.966;2023-02-15T07:56:42;27.58;;;9.57;;
70132;SDS011;57495;49.922;7.966;2023-02-15T07:58:43;30.00;;;9.25;;
70132;SDS011;57495;49.922;7.966;2023-02-15T08:00:57;24.92;;;8.90;;
70132;SDS011;57495;49.922;7.966;2023-02-15T08:03:00;27.33;;;9.70;;
70132;SDS011;57495;49.922;7.966;2023-02-15T08:05:14;25.63;;;9.17;;
70132;SDS011;57495;49.922;7.966;2023-02-15T08:07:18;26.48;;;9.23;;
70132;SDS011;57495;49.922;7.966;2023-02-15T08:09:19;26.60;;;9.77;;
70132;SDS011;57495;49.922;7.966;2023-02-15T08:11:21;27.73;;;9.32;;
70132;SDS011;57495;49.922;7.966;2023-02-15T08:13:25;26.02;;;9.68;;
70132;SDS011;57495;49.922;7.966;2023-02-15T08:15:27;22.50;;;8.43;;
70132;SDS011;57495;49.922;7.966;2023-02-15T08:17:30;25.23;;;10.13;;
70132;SDS011;57495;49.922;7.966;2023-02-15T08:19:31;27.73;;;9.63;;
70132;SDS011;57495;49.922;7.966;2023-02-15T08:21:34;26.48;;;9.82;;
70132;SDS011;57495;49.922;7.966;2023-02-15T08:23:37;23.30;;;9.77;;
70132;SDS011;57495;49.922;7.966;2023-02-15T08:25:38;24.97;;;8.37;;
70132;SDS011;57495;49.922;7.966;2023-02-15T08:27:40;20.83;;;7.68;;
70132;SDS011;57495;49.922;7.966;2023-02-15T08:29:41;24.48;;;9.65;;
70132;SDS011;57495;49.922;7.966;2023-02-15T08:31:43;24.08;;;9.95;;
70132;SDS011;57495;49.922;7.966;2023-02-15T08:33:47;25.23;;;10.93;;
70132;SDS011;57495;49.922;7.966;2023-02-15T08:35:49;23.43;;;8.83;;
70132;SDS011;57495;49.922;7.966;2023-02-15T08:37:51;28.30;;;10.38;;
70132;SDS011;57495;49.922;7.966;2023-02-15T08:39:52;29.75;;;10.98;;
70132;SDS011;57495;49.922;7.966;2023-02-15T08:41:54;55.30;;;21.92;;
70132;SDS011;57495;49.922;7.966;2023-02-15T08:43:56;34.75;;;14.10;;
70132;SDS011;57495;49.922;7.966;2023-02-15T08:45:58;23.33;;;9.57;;
70132;SDS011;57495;49.922;7.966;2023-02-15T08:47:59;23.20;;;8.65;;
70132;SDS011;57495;49.922;7.966;2023-02-15T08:50:06;21.33;;;8.82;;
70132;SDS011;57495;49.922;7.966;2023-02-15T08:52:07;23.15;;;8.13;;
70132;SDS011;57495;49.922;7.966;2023-02-15T08:54:09;26.15;;;9.85;;
70132;SDS011;57495;49.922;7.966;2023-02-15T08:56:13;25.67;;;9.70;;
70132;SDS011;57495;49.922;7.966;2023-02-15T08:58:15;26.23;;;9.48;;
70132;SDS011;57495;49.922;7.966;2023-02-15T09:00:16;28.38;;;9.80;;
70132;SDS011;57495;49.922;7.966;2023-02-15T09:02:18;23.58;;;9.57;;
70132;SDS011;57495;49.922;7.966;2023-02-15T09:04:20;20.80;;;8.68;;
70132;SDS011;57495;49.922;7.966;2023-02-15T09:06:24;26.93;;;9.60;;
70132;SDS011;57495;49.922;7.966;2023-02-15T09:08:26;27.88;;;10.50;;
70132;SDS011;57495;49.922;7.966;2023-02-15T09:10:28;22.45;;;9.68;;
70132;SDS011;57495;49.922;7.966;2023-02-15T09:12:29;24.42;;;9.60;;
70132;SDS011;57495;49.922;7.966;2023-02-15T09:14:31;24.70;;;9.65;;
70132;SDS011;57495;49.922;7.966;2023-02-15T09:16:33;23.50;;;8.80;;
70132;SDS011;57495;49.922;7.966;2023-02-15T09:18:36;24.20;;;9.23;;
70132;SDS011;57495;49.922;7.966;2023-02-15T09:20:39;25.05;;;9.88;;
70132;SDS011;57495;49.922;7.966;2023-02-15T09:22:41;26.30;;;9.50;;
70132;SDS011;57495;49.922;7.966;2023-02-15T09:24:43;24.77;;;9.20;;
70132;SDS011;57495;49.922;7.966;2023-02-15T09:26:44;19.60;;;8.33;;
70132;SDS011;57495;49.922;7.966;2023-02-15T09:28:50;18.23;;;7.35;;
70132;SDS011;57495;49.922;7.966;2023-02-15T09:30:52;20.63;;;7.95;;
70132;SDS011;57495;49.922;7.966;2023-02-15T09:32:55;23.30;;;9.57;;
70132;SDS011;57495;49.922;7.966;2023-02-15T09:34:56;22.38;;;8.85;;
70132;SDS011;57495;49.922;7.966;2023-02-15T09:36:58;23.93;;;9.47;;
70132;SDS011;57495;49.922;7.966;2023-02-15T09:39:03;23.25;;;9.68;;
70132;SDS011;57495;49.922;7.966;2023-02-15T09:41:13;20.88;;;8.73;;
70132;SDS011;57495;49.922;7.966;2023-02-15T09:43:28;18.80;;;7.72;;
70132;SDS011;57495;49.922;7.966;2023-02-15T09:48:18;23.47;;;8.90;;
70132;SDS011;57495;49.922;7.966;2023-02-15T09:50:37;21.67;;;9.27;;
70132;SDS011;57495;49.922;7.966;2023-02-15T09:53:00;23.70;;;9.35;;
70132;SDS011;57495;49.922;7.966;2023-02-15T09:55:27;23.40;;;9.27;;
70132;SDS011;57495;49.922;7.966;2023-02-15T09:57:42;25.15;;;10.23;;
70132;SDS011;57495;49.922;7.966;2023-02-15T09:59:50;23.60;;;9.30;;
70132;SDS011;57495;49.922;7.966;2023-02-15T10:02:04;21.25;;;8.65;;
70132;SDS011;57495;49.922;7.966;2023-02-15T10:04:24;23.10;;;9.82;;
70132;SDS011;57495;49.922;7.966;2023-02-15T10:06:36;22.42;;;9.15;;
70132;SDS011;57495;49.922;7.966;2023-02-15T10:08:52;23.60;;;9.40;;
70132;SDS011;57495;49.922;7.966;2023-02-15T10:11:06;26.80;;;10.33;;
70132;SDS011;57495;49.922;7.966;2023-02-15T10:13:33;23.48;;;9.52;;
70132;SDS011;57495;49.922;7.966;2023-02-15T10:15:51;22.42;;;9.52;;
70132;SDS011;57495;49.922;7.966;2023-02-15T10:18:01;22.90;;;9.82;;
70132;SDS011;57495;49.922;7.966;2023-02-15T10:20:16;25.40;;;10.77;;
70132;SDS011;57495;49.922;7.966;2023-02-15T10:22:27;15.13;;;6.17;;
70132;SDS011;57495;49.922;7.966;2023-02-15T10:24:45;26.38;;;10.00;;
70132;SDS011;57495;49.922;7.966;2023-02-15T10:27:01;27.80;;;10.95;;
70132;SDS011;57495;49.922;7.966;2023-02-15T10:29:08;23.92;;;10.25;;
70132;SDS011;57495;49.922;7.966;2023-02-15T10:31:20;28.63;;;11.35;;
70132;SDS011;57495;49.922;7.966;2023-02-15T10:33:38;27.50;;;11.70;;
70132;SDS011;57495;49.922;7.966;2023-02-15T10:35:42;28.10;;;10.88;;
70132;SDS011;57495;49.922;7.966;2023-02-15T10:37:57;24.60;;;11.07;;
70132;SDS011;57495;49.922;7.966;2023-02-15T10:40:08;31.20;;;12.73;;
70132;SDS011;57495;49.922;7.966;2023-02-15T10:42:19;23.58;;;10.77;;
70132;SDS011;57495;49.922;7.966;2023-02-15T10:44:41;23.30;;;10.67;;
70132;SDS011;57495;49.922;7.966;2023-02-15T10:47:00;24.25;;;9.02;;
70132;SDS011;57495;49.922;7.966;2023-02-15T10:49:21;23.73;;;10.65;;
70132;SDS011;57495;49.922;7.966;2023-02-15T10:51:34;23.95;;;10.63;;
70132;SDS011;57495;49.922;7.966;2023-02-15T10:53:49;26.63;;;11.77;;
70132;SDS011;57495;49.922;7.966;2023-02-15T10:56:05;27.67;;;11.80;;
70132;SDS011;57495;49.922;7.966;2023-02-15T10:58:16;27.75;;;11.70;;
70132;SDS011;57495;49.922;7.966;2023-02-15T11:00:31;26.35;;;11.20;;
70132;SDS011;57495;49.922;7.966;2023-02-15T11:02:45;25.65;;;10.68;;
70132;SDS011;57495;49.922;7.966;2023-02-15T11:04:58;26.52;;;10.88;;
70132;SDS011;57495;49.922;7.966;2023-02-15T11:07:17;25.00;;;10.50;;
70132;SDS011;57495;49.922;7.966;2023-02-15T11:09:24;23.38;;;10.52;;
70132;SDS011;57495;49.922;7.966;2023-02-15T11:11:31;25.00;;;11.40;;
70132;SDS011;57495;49.922;7.966;2023-02-15T11:13:41;24.13;;;10.30;;
70132;SDS011;57495;49.922;7.966;2023-02-15T11:15:48;23.38;;;11.70;;
70132;SDS011;57495;49.922;7.966;2023-02-15T11:17:56;23.90;;;11.00;;
70132;SDS011;57495;49.922;7.966;2023-02-15T11:20:02;22.58;;;10.48;;
70132;SDS011;57495;49.922;7.966;2023-02-15T11:22:16;23.27;;;10.20;;
70132;SDS011;57495;49.922;7.966;2023-02-15T11:24:18;25.17;;;11.25;;
70132;SDS011;57495;49.922;7.966;2023-02-15T11:26:21;25.45;;;11.20;;
70132;SDS011;57495;49.922;7.966;2023-02-15T11:28:30;24.03;;;10.57;;
70132;SDS011;57495;49.922;7.966;2023-02-15T11:30:38;22.80;;;10.45;;
70132;SDS011;57495;49.922;7.966;2023-02-15T11:32:44;24.65;;;10.45;;
70132;SDS011;57495;49.922;7.966;2023-02-15T11:34:48;22.45;;;10.88;;
70132;SDS011;57495;49.922;7.966;2023-02-15T11:36:52;24.33;;;11.02;;
70132;SDS011;57495;49.922;7.966;2023-02-15T11:39:01;23.23;;;11.33;;
70132;SDS011;57495;49.922;7.966;2023-02-15T11:41:05;21.90;;;10.88;;
70132;SDS011;57495;49.922;7.966;2023-02-15T11:43:11;22.75;;;10.48;;
70132;SDS011;57495;49.922;7.966;2023-02-15T11:45:20;22.67;;;10.95;;
70132;SDS011;57495;49.922;7.966;2023-02-15T11:47:28;12.90;;;5.63;;
70132;SDS011;57495;49.922;7.966;2023-02-15T11:49:30;23.77;;;11.07;;
70132;SDS011;57495;49.922;7.966;2023-02-15T11:51:32;24.33;;;10.98;;
70132;SDS011;57495;49.922;7.966;2023-02-15T11:53:36;22.33;;;10.27;;
70132;SDS011;57495;49.922;7.966;2023-02-15T11:55:38;22.33;;;9.90;;
70132;SDS011;57495;49.922;7.966;2023-02-15T11:57:41;23.83;;;10.70;;
70132;SDS011;57495;49.922;7.966;2023-02-15T11:59:49;24.40;;;10.40;;
70132;SDS011;57495;49.922;7.966;2023-02-15T12:01:54;23.45;;;10.85;;
70132;SDS011;57495;49.922;7.966;2023-02-15T12:03:58;26.20;;;11.10;;
70132;SDS011;57495;49.922;7.966;2023-02-15T12:06:03;25.13;;;11.00;;
70132;SDS011;57495;49.922;7.966;2023-02-15T12:08:10;24.25;;;10.52;;
70132;SDS011;57495;49.922;7.966;2023-02-15T12:10:17;18.73;;;8.57;;
70132;SDS011;57495;49.922;7.966;2023-02-15T12:12:25;22.77;;;11.13;;
70132;SDS011;57495;49.922;7.966;2023-02-15T12:14:28;23.77;;;11.07;;
70132;SDS011;57495;49.922;7.966;2023-02-15T12:16:48;21.80;;;10.38;;
70132;SDS011;57495;49.922;7.966;2023-02-15T12:18:52;24.83;;;10.75;;